createdAt,value
2022-09-02T00:00:17.900Z,14.52
2022-09-02T00:03:05.069Z,14.51
2022-09-02T00:05:50.814Z,14.49
2022-09-02T00:08:38.165Z,14.50
2022-09-02T00:11:27.637Z,14.54
2022-09-02T00:14:31.983Z,14.55
2022-09-02T00:17:17.478Z,14.50
2022-09-02T00:20:04.458Z,14.43
2022-09-02T00:22:58.280Z,14.29
2022-09-02T00:25:44.974Z,14.21
2022-09-02T00:28:30.833Z,14.16
2022-09-02T00:31:17.741Z,14.17
2022-09-02T00:34:04.433Z,14.16
2022-09-02T00:36:50.177Z,14.21
2022-09-02T00:39:35.595Z,14.22
2022-09-02T00:42:22.790Z,14.23
2022-09-02T00:45:09.747Z,14.28
2022-09-02T00:47:55.619Z,14.33
2022-09-02T00:50:40.978Z,14.35
2022-09-02T00:53:26.375Z,14.37
2022-09-02T00:56:17.204Z,14.35
2022-09-02T00:59:02.854Z,14.37
2022-09-02T01:01:48.861Z,14.38
2022-09-02T01:04:35.446Z,14.37
2022-09-02T01:07:22.389Z,14.37
2022-09-02T01:10:12.621Z,14.37
2022-09-02T01:13:00.377Z,14.38
2022-09-02T01:15:52.002Z,14.38
2022-09-02T01:18:38.870Z,14.39
2022-09-02T01:21:24.753Z,14.40
2022-09-02T01:24:10.081Z,14.37
2022-09-02T01:26:57.619Z,14.37
2022-09-02T01:29:43.718Z,14.36
2022-09-02T01:32:30.533Z,14.40
2022-09-02T01:35:16.797Z,14.39
2022-09-02T01:38:03.133Z,14.37
2022-09-02T01:40:48.892Z,14.36
2022-09-02T01:43:34.814Z,14.36
2022-09-02T01:46:20.524Z,14.36
2022-09-02T01:49:06.342Z,14.34
2022-09-02T01:51:55.270Z,14.35
2022-09-02T01:54:42.115Z,14.37
2022-09-02T01:57:27.945Z,14.37
2022-09-02T02:00:15.360Z,14.39
2022-09-02T02:03:01.154Z,14.44
2022-09-02T02:05:48.826Z,14.44
2022-09-02T02:08:36.338Z,14.44
2022-09-02T02:11:24.866Z,14.42
2022-09-02T02:14:15.359Z,14.41
2022-09-02T02:17:06.409Z,14.40
2022-09-02T02:19:52.176Z,14.39
2022-09-02T02:22:39.363Z,14.41
2022-09-02T02:25:24.896Z,14.40
2022-09-02T02:28:12.645Z,14.40
2022-09-02T02:30:59.955Z,14.38
2022-09-02T02:33:45.422Z,14.38
2022-09-02T02:36:31.938Z,14.39
2022-09-02T02:39:18.383Z,14.37
2022-09-02T02:42:04.964Z,14.38
2022-09-02T02:44:51.581Z,14.36
2022-09-02T02:47:42.480Z,14.36
2022-09-02T02:50:28.198Z,14.31
2022-09-02T02:53:14.276Z,14.29
2022-09-02T02:56:00.906Z,14.22
2022-09-02T02:58:46.752Z,14.17
2022-09-02T03:01:33.436Z,14.12
2022-09-02T03:04:19.321Z,14.12
2022-09-02T03:07:06.486Z,14.07
2022-09-02T03:09:52.255Z,14.05
2022-09-02T03:12:39.821Z,13.99
2022-09-02T03:15:26.592Z,13.96
2022-09-02T03:18:12.498Z,13.88
2022-09-02T03:20:58.177Z,13.87
2022-09-02T03:23:45.175Z,13.84
2022-09-02T03:26:31.409Z,13.83
2022-09-02T03:29:18.274Z,13.86
2022-09-02T03:32:04.866Z,13.86
2022-09-02T03:34:54.559Z,13.92
2022-09-02T03:37:40.134Z,13.83
2022-09-02T03:40:28.478Z,13.86
2022-09-02T03:43:15.157Z,13.83
2022-09-02T03:46:01.158Z,13.85
2022-09-02T03:48:47.272Z,13.87
2022-09-02T03:51:33.327Z,13.87
2022-09-02T03:54:19.463Z,13.86
2022-09-02T03:57:05.589Z,13.83
2022-09-02T03:59:52.003Z,13.83
2022-09-02T04:02:37.847Z,13.82
2022-09-02T04:05:25.023Z,13.82
2022-09-02T04:08:13.578Z,13.76
2022-09-02T04:10:59.342Z,13.76
2022-09-02T04:13:46.648Z,13.70
2022-09-02T04:16:36.219Z,13.65
2022-09-02T04:19:25.510Z,13.65
2022-09-02T04:22:11.354Z,13.66
2022-09-02T04:24:57.460Z,13.65
2022-09-02T04:27:42.769Z,13.64
2022-09-02T04:30:28.649Z,13.61
2022-09-02T04:33:14.853Z,13.61
2022-09-02T04:36:05.566Z,13.57
2022-09-02T04:38:53.450Z,13.53
2022-09-02T04:41:42.674Z,13.52
2022-09-02T04:44:30.549Z,13.53
2022-09-02T04:47:16.635Z,13.51
2022-09-02T04:50:04.156Z,13.52
2022-09-02T04:52:53.127Z,13.54
2022-09-02T04:55:40.687Z,13.57
2022-09-02T04:58:28.575Z,13.58
2022-09-02T05:01:18.841Z,13.61
2022-09-02T05:04:09.756Z,13.60
2022-09-02T05:07:03.890Z,13.59
2022-09-02T05:10:00.225Z,13.58
2022-09-02T05:12:49.406Z,13.56
2022-09-02T05:15:40.899Z,13.49
2022-09-02T05:18:28.091Z,13.44
2022-09-02T05:21:14.352Z,13.40
2022-09-02T05:24:00.535Z,13.31
2022-09-02T05:26:46.541Z,13.24
2022-09-02T05:29:32.842Z,13.14
2022-09-02T05:32:18.822Z,13.07
2022-09-02T05:35:07.053Z,13.03
2022-09-02T05:37:57.497Z,12.99
2022-09-02T05:40:47.501Z,12.95
2022-09-02T05:43:35.806Z,12.89
2022-09-02T05:46:24.360Z,12.82
2022-09-02T05:49:18.468Z,12.78
2022-09-02T05:52:10.383Z,12.80
2022-09-02T05:55:05.637Z,12.80
2022-09-02T05:57:56.507Z,12.84
2022-09-02T06:00:42.464Z,12.88
2022-09-02T06:03:28.530Z,12.92
2022-09-02T06:06:14.975Z,12.95
2022-09-02T06:09:01.396Z,12.98
2022-09-02T06:11:49.628Z,12.99
2022-09-02T06:14:39.454Z,13.03
2022-09-02T06:17:27.383Z,13.06
2022-09-02T06:20:15.445Z,13.08
2022-09-02T06:23:02.476Z,13.08
2022-09-02T06:25:49.321Z,13.10
2022-09-02T06:28:36.845Z,13.14
2022-09-02T06:31:23.714Z,13.16
2022-09-02T06:34:13.952Z,13.16
2022-09-02T06:37:01.251Z,13.15
2022-09-02T06:39:48.372Z,13.17
2022-09-02T06:42:41.063Z,13.18
2022-09-02T06:45:44.128Z,13.20
2022-09-02T06:48:30.001Z,13.22
2022-09-02T06:51:40.283Z,13.24
2022-09-02T06:54:26.325Z,13.26
2022-09-02T06:57:22.715Z,13.28
2022-09-02T07:00:18.342Z,13.30
2022-09-02T07:03:23.779Z,13.33
2022-09-02T07:06:11.607Z,13.38
2022-09-02T07:09:02.045Z,13.45
2022-09-02T07:11:51.195Z,13.51
2022-09-02T07:14:41.643Z,13.62
2022-09-02T07:17:29.079Z,13.71
2022-09-02T07:20:20.221Z,13.81
2022-09-02T07:23:13.625Z,13.93
2022-09-02T07:26:00.192Z,14.01
2022-09-02T07:28:47.392Z,14.15
2022-09-02T07:31:33.301Z,14.28
2022-09-02T07:34:19.866Z,14.40
2022-09-02T07:37:10.900Z,14.53
2022-09-02T07:39:58.761Z,14.69
2022-09-02T07:42:45.303Z,14.80
2022-09-02T07:45:32.066Z,14.91
2022-09-02T07:48:18.897Z,14.95
2022-09-02T07:51:06.598Z,15.03
2022-09-02T07:53:52.638Z,15.17
2022-09-02T07:56:40.825Z,15.29
2022-09-02T07:59:27.168Z,15.33
2022-09-02T08:02:18.124Z,15.38
2022-09-02T08:05:05.158Z,15.44
2022-09-02T08:07:50.747Z,15.45
2022-09-02T08:10:38.330Z,15.42
2022-09-02T08:13:27.034Z,15.42
2022-09-02T08:16:13.554Z,15.43
2022-09-02T08:18:58.816Z,15.50
2022-09-02T08:21:45.401Z,15.57
2022-09-02T08:24:32.776Z,15.64
2022-09-02T08:27:18.715Z,15.67
2022-09-02T08:30:06.651Z,15.73
2022-09-02T08:32:52.304Z,15.74
2022-09-02T08:35:38.639Z,15.79
2022-09-02T08:38:24.187Z,15.82
2022-09-02T08:41:16.966Z,15.81
2022-09-02T08:44:05.261Z,15.85
2022-09-02T08:46:54.526Z,15.90
2022-09-02T08:49:44.380Z,15.96
2022-09-02T08:52:40.882Z,16.07
2022-09-02T08:55:35.569Z,16.08
2022-09-02T08:58:24.781Z,16.21
2022-09-02T09:01:45.917Z,16.30
2022-09-02T09:04:58.248Z,16.44
2022-09-02T09:07:50.008Z,16.60
2022-09-02T09:10:44.453Z,16.74
2022-09-02T09:13:51.592Z,16.90
2022-09-02T09:16:44.859Z,17.02
2022-09-02T09:19:47.263Z,17.12
2022-09-02T09:22:39.531Z,17.37
2022-09-02T09:25:31.195Z,17.70
2022-09-02T09:28:16.906Z,17.88
2022-09-02T09:31:02.524Z,18.06
2022-09-02T09:34:07.651Z,18.12
2022-09-02T09:36:54.821Z,18.07
2022-09-02T09:39:40.132Z,18.16
2022-09-02T09:42:37.779Z,18.22
2022-09-02T09:45:34.497Z,18.36
2022-09-02T09:48:29.735Z,18.49
2022-09-02T09:51:16.346Z,18.59
2022-09-02T09:54:16.673Z,18.68
2022-09-02T09:57:24.782Z,18.71
2022-09-02T10:00:34.396Z,18.78
2022-09-02T10:03:42.651Z,18.98
2022-09-02T10:06:31.182Z,19.07
2022-09-02T10:09:20.147Z,18.97
2022-09-02T10:12:11.790Z,18.93
2022-09-02T10:14:58.184Z,18.91
2022-09-02T10:18:14.819Z,19.03
2022-09-02T10:21:18.058Z,19.04
2022-09-02T10:24:18.574Z,18.98
2022-09-02T10:27:09.199Z,18.88
2022-09-02T10:30:03.634Z,18.83
2022-09-02T10:33:46.455Z,18.86
2022-09-02T10:36:39.630Z,19.01
2022-09-02T10:39:28.167Z,19.00
2022-09-02T10:42:20.026Z,19.06
2022-09-02T10:45:05.684Z,19.24
2022-09-02T10:48:06.545Z,19.18
2022-09-02T10:51:00.632Z,19.17
2022-09-02T10:53:55.268Z,19.01
2022-09-02T10:56:44.637Z,18.90
2022-09-02T10:59:54.245Z,19.00
2022-09-02T11:02:49.050Z,19.21
2022-09-02T11:05:54.768Z,19.32
2022-09-02T11:08:47.686Z,19.28
2022-09-02T11:11:46.245Z,19.38
2022-09-02T11:14:41.113Z,19.47
2022-09-02T11:17:52.755Z,19.54
2022-09-02T11:20:47.601Z,19.59
2022-09-02T11:23:47.260Z,19.71
2022-09-02T11:27:15.745Z,19.99
2022-09-02T11:30:15.444Z,20.52
2022-09-02T11:33:21.601Z,21.01
2022-09-02T11:36:07.767Z,21.31
2022-09-02T11:39:10.763Z,21.47
2022-09-02T11:42:27.191Z,21.68
2022-09-02T11:45:39.387Z,21.58
2022-09-02T11:48:29.590Z,21.32
2022-09-02T11:51:44.962Z,21.28
2022-09-02T11:54:43.329Z,21.56
2022-09-02T11:57:28.666Z,21.80
2022-09-02T12:00:36.866Z,22.02
2022-09-02T12:03:41.181Z,22.20
2022-09-02T12:06:35.476Z,22.29
2022-09-02T12:09:47.143Z,22.27
2022-09-02T12:12:36.830Z,22.18
2022-09-02T12:15:23.578Z,21.96
2022-09-02T12:18:31.199Z,21.91
2022-09-02T12:21:23.264Z,21.88
2022-09-02T12:24:10.976Z,21.85
2022-09-02T12:26:56.651Z,21.76
2022-09-02T12:29:44.875Z,21.74
2022-09-02T12:32:48.986Z,21.61
2022-09-02T12:35:35.037Z,21.29
2022-09-02T12:38:26.138Z,21.13
2022-09-02T12:41:23.233Z,20.96
2022-09-02T12:44:24.305Z,20.74
2022-09-02T12:47:47.603Z,20.44
2022-09-02T12:50:53.737Z,20.16
2022-09-02T12:53:49.192Z,19.98
2022-09-02T12:56:34.834Z,19.77
2022-09-02T12:59:29.545Z,19.64
2022-09-02T13:02:30.593Z,19.51
2022-09-02T13:05:25.794Z,19.35
2022-09-02T13:08:33.679Z,19.21
2022-09-02T13:11:40.625Z,19.06
2022-09-02T13:14:55.236Z,19.04
2022-09-02T13:18:16.608Z,18.91
2022-09-02T13:21:34.438Z,18.82
2022-09-02T13:24:44.554Z,18.67
2022-09-02T13:27:56.506Z,18.52
2022-09-02T13:31:13.259Z,18.29
2022-09-02T13:34:01.302Z,18.19
2022-09-02T13:36:50.176Z,18.18
2022-09-02T13:39:38.444Z,18.23
2022-09-02T13:42:27.556Z,18.35
2022-09-02T13:45:24.603Z,18.46
2022-09-02T13:48:23.057Z,18.45
2022-09-02T13:51:14.064Z,18.36
2022-09-02T13:54:22.248Z,18.28
2022-09-02T13:57:10.353Z,18.18
2022-09-02T13:59:57.534Z,18.06
2022-09-02T14:02:58.089Z,18.00
2022-09-02T14:05:47.735Z,18.00
2022-09-02T14:08:33.275Z,18.05
2022-09-02T14:11:19.488Z,18.08
2022-09-02T14:14:05.171Z,18.16
2022-09-02T14:16:51.546Z,18.21
2022-09-02T14:19:37.106Z,18.26
2022-09-02T14:22:26.824Z,18.35
2022-09-02T14:25:15.000Z,18.40
2022-09-02T14:28:00.880Z,18.33
2022-09-02T14:31:18.636Z,18.33
2022-09-02T14:34:09.893Z,18.39
2022-09-02T14:36:55.240Z,18.45
2022-09-02T14:40:00.194Z,18.56
2022-09-02T14:42:57.318Z,18.59
2022-09-02T14:45:50.420Z,18.69
2022-09-02T14:48:39.161Z,18.67
2022-09-02T14:51:33.010Z,18.63
2022-09-02T14:54:47.446Z,18.56
2022-09-02T14:57:35.776Z,18.50
2022-09-02T15:00:21.726Z,18.48
2022-09-02T15:03:07.626Z,18.60
2022-09-02T15:05:53.875Z,18.64
2022-09-02T15:08:39.661Z,18.63
2022-09-02T15:11:25.494Z,18.55
2022-09-02T15:14:12.917Z,18.47
2022-09-02T15:16:58.530Z,18.43
2022-09-02T15:19:44.114Z,18.47
2022-09-02T15:22:29.488Z,18.51
2022-09-02T15:25:15.750Z,18.59
2022-09-02T15:28:01.753Z,18.61
2022-09-02T15:30:47.056Z,18.70
2022-09-02T15:33:32.457Z,18.78
2022-09-02T15:36:18.708Z,18.80
2022-09-02T15:39:04.620Z,18.83
2022-09-02T15:41:50.363Z,18.85
2022-09-02T15:44:35.804Z,18.83
2022-09-02T15:47:21.381Z,18.85
2022-09-02T15:50:07.078Z,18.84
2022-09-02T15:52:52.537Z,18.80
2022-09-02T15:55:38.169Z,18.69
2022-09-02T15:58:23.341Z,18.62
2022-09-02T16:01:09.371Z,18.54
2022-09-02T16:03:56.137Z,18.51
2022-09-02T16:06:52.373Z,18.44
2022-09-02T16:09:38.346Z,18.39
2022-09-02T16:12:25.327Z,18.36
2022-09-02T16:15:11.481Z,18.31
2022-09-02T16:17:56.976Z,18.28
2022-09-02T16:20:42.235Z,18.25
2022-09-02T16:23:28.266Z,18.21
2022-09-02T16:26:30.422Z,18.17
2022-09-02T16:29:16.964Z,18.12
2022-09-02T16:35:09.399Z,18.03
2022-09-02T16:37:57.526Z,18.00
2022-09-02T16:40:53.624Z,17.99
2022-09-02T16:43:38.980Z,17.97
2022-09-02T16:46:26.480Z,17.97
2022-09-02T16:49:18.485Z,17.97
2022-09-02T16:52:04.071Z,17.95
2022-09-02T16:54:49.838Z,17.91
2022-09-02T16:57:35.548Z,17.86
2022-09-02T17:00:23.605Z,17.85
2022-09-02T17:03:12.936Z,17.82
2022-09-02T17:05:59.267Z,17.82
2022-09-02T17:08:45.156Z,17.83
2022-09-02T17:11:37.615Z,17.84
2022-09-02T17:14:23.080Z,17.84
2022-09-02T17:17:08.638Z,17.84
2022-09-02T17:19:54.299Z,17.85
2022-09-02T17:22:41.516Z,17.86
2022-09-02T17:25:27.394Z,17.86
2022-09-02T17:28:13.169Z,17.88
2022-09-02T17:30:59.105Z,17.87
2022-09-02T17:33:45.583Z,17.89
2022-09-02T17:36:32.965Z,17.84
2022-09-02T17:39:19.686Z,17.82
2022-09-02T17:42:06.584Z,17.79
2022-09-02T17:44:52.649Z,17.79
2022-09-02T17:47:38.574Z,17.76
2022-09-02T17:50:23.926Z,17.73
2022-09-02T17:53:09.205Z,17.70
2022-09-02T17:56:27.000Z,17.66
2022-09-02T17:59:24.512Z,17.62
2022-09-02T18:02:29.592Z,17.54
2022-09-02T18:05:50.328Z,17.48
2022-09-02T18:08:49.328Z,17.41
2022-09-02T18:11:34.918Z,17.33
2022-09-02T18:14:32.895Z,17.28
2022-09-02T18:17:26.347Z,17.21
2022-09-02T18:20:36.142Z,17.14
2022-09-02T18:23:31.147Z,17.10
2022-09-02T18:26:45.570Z,17.06
2022-09-02T18:30:12.226Z,16.99
2022-09-02T18:33:34.044Z,16.97
2022-09-02T18:36:25.595Z,16.94
2022-09-02T18:39:20.099Z,16.89
2022-09-02T18:42:25.216Z,16.84
2022-09-02T18:45:43.288Z,16.76
2022-09-02T18:48:32.883Z,16.70
2022-09-02T18:51:35.105Z,16.64
2022-09-02T18:54:26.781Z,16.59
2022-09-02T18:57:13.435Z,16.54
2022-09-02T19:00:09.240Z,16.53
2022-09-02T19:03:02.464Z,16.50
2022-09-02T19:05:47.816Z,16.47
2022-09-02T19:08:34.399Z,16.46
2022-09-02T19:11:20.063Z,16.41
2022-09-02T19:14:08.718Z,16.35
2022-09-02T19:16:57.781Z,16.30
2022-09-02T19:19:43.563Z,16.26
2022-09-02T19:22:29.721Z,16.21
2022-09-02T19:25:21.855Z,16.19
2022-09-02T19:28:12.624Z,16.15
2022-09-02T19:31:03.571Z,16.10
2022-09-02T19:33:53.314Z,16.05
2022-09-02T19:36:43.590Z,16.00
2022-09-02T19:39:28.996Z,15.97
2022-09-02T19:42:15.169Z,15.94
2022-09-02T19:45:04.240Z,15.91
2022-09-02T19:48:06.560Z,15.88
2022-09-02T19:50:53.144Z,15.83
2022-09-02T19:53:39.646Z,15.84
2022-09-02T19:56:25.286Z,15.80
2022-09-02T19:59:11.284Z,15.77
2022-09-02T20:01:57.545Z,15.76
2022-09-02T20:04:42.909Z,15.79
2022-09-02T20:07:28.423Z,15.75
2022-09-02T20:10:14.034Z,15.77
2022-09-02T20:13:00.611Z,15.77
2022-09-02T20:15:46.271Z,15.77
2022-09-02T20:18:32.504Z,15.72
2022-09-02T20:21:35.851Z,15.70
2022-09-02T20:24:29.444Z,15.66
2022-09-02T20:27:15.159Z,15.64
2022-09-02T20:30:14.588Z,15.63
2022-09-02T20:33:17.585Z,15.62
2022-09-02T20:36:21.318Z,15.58
2022-09-02T20:39:37.816Z,15.54
2022-09-02T20:42:59.688Z,15.51
2022-09-02T20:45:53.259Z,15.46
2022-09-02T20:49:06.427Z,15.43
2022-09-02T20:52:01.556Z,15.38
2022-09-02T20:54:55.653Z,15.33
2022-09-02T20:58:19.509Z,15.29
2022-09-02T21:01:11.931Z,15.31
2022-09-02T21:04:12.882Z,15.28
2022-09-02T21:07:05.665Z,15.25
2022-09-02T21:10:17.006Z,15.21
